createdAt,value
2017-06-20T00:00:28.458Z,1003.57
2017-06-20T00:01:08.964Z,1003.57
2017-06-20T00:01:49.489Z,1003.57
2017-06-20T00:02:30.154Z,1003.61
2017-06-20T00:03:10.637Z,1003.58
2017-06-20T00:03:51.157Z,1003.6
2017-06-20T00:04:31.635Z,1003.59
2017-06-20T00:05:12.151Z,1003.61
2017-06-20T00:05:52.704Z,1003.65
2017-06-20T00:06:33.253Z,1003.63
2017-06-20T00:07:13.807Z,1003.69
2017-06-20T00:07:54.303Z,1003.66
2017-06-20T00:08:34.776Z,1003.62
2017-06-20T00:09:15.262Z,1003.66
2017-06-20T00:09:55.839Z,1003.67
2017-06-20T00:10:36.339Z,1003.69
2017-06-20T00:11:16.887Z,1003.69
2017-06-20T00:11:57.336Z,1003.63
2017-06-20T00:12:37.794Z,1003.66
2017-06-20T00:13:18.328Z,1003.66
2017-06-20T00:13:58.990Z,1003.66
2017-06-20T00:14:39.494Z,1003.66
2017-06-20T00:15:20.024Z,1003.68
2017-06-20T00:16:00.540Z,1003.64
2017-06-20T00:16:40.997Z,1003.64
2017-06-20T00:17:22.076Z,1003.64
2017-06-20T00:18:03.454Z,1003.61
2017-06-20T00:18:43.055Z,1003.6
2017-06-20T00:19:23.552Z,1003.6
2017-06-20T00:20:04.026Z,1003.63
2017-06-20T00:20:44.536Z,1003.63
2017-06-20T00:21:25.053Z,1003.65
2017-06-20T00:22:05.527Z,1003.6
2017-06-20T00:22:46.063Z,1003.62
2017-06-20T00:23:26.531Z,1003.63
2017-06-20T00:24:07.166Z,1003.65
2017-06-20T00:24:47.631Z,1003.63
2017-06-20T00:25:28.185Z,1003.64
2017-06-20T00:26:08.669Z,1003.65
2017-06-20T00:26:49.198Z,1003.61
2017-06-20T00:27:29.730Z,1003.6
2017-06-20T00:28:10.347Z,1003.61
2017-06-20T00:28:50.945Z,1003.64
2017-06-20T00:29:31.399Z,1003.63
2017-06-20T00:30:11.894Z,1003.64
2017-06-20T00:30:52.370Z,1003.57
2017-06-20T00:31:32.886Z,1003.58
2017-06-20T00:32:13.379Z,1003.6
2017-06-20T00:32:53.876Z,1003.62
2017-06-20T00:33:34.522Z,1003.6
2017-06-20T00:34:15.192Z,1003.63
2017-06-20T00:34:55.528Z,1003.64
2017-06-20T00:35:36.242Z,1003.62
2017-06-20T00:36:16.843Z,1003.61
2017-06-20T00:36:57.307Z,1003.6
2017-06-20T00:37:37.887Z,1003.55
2017-06-20T00:38:18.329Z,1003.61
2017-06-20T00:38:58.942Z,1003.59
2017-06-20T00:39:39.515Z,1003.59
2017-06-20T00:40:19.984Z,1003.59
2017-06-20T00:41:00.430Z,1003.61
2017-06-20T00:41:40.978Z,1003.62
2017-06-20T00:42:21.527Z,1003.58
2017-06-20T00:43:02.119Z,1003.56
2017-06-20T00:43:42.690Z,1003.6
2017-06-20T00:44:23.173Z,1003.58
2017-06-20T00:45:03.670Z,1003.59
2017-06-20T00:45:44.118Z,1003.6
2017-06-20T00:46:24.614Z,1003.59
2017-06-20T00:47:05.132Z,1003.57
2017-06-20T00:47:46.410Z,1003.62
2017-06-20T00:48:27.143Z,1003.57
2017-06-20T00:49:07.598Z,1003.62
2017-06-20T00:49:48.118Z,1003.57
2017-06-20T00:50:28.602Z,1003.59
2017-06-20T00:51:09.122Z,1003.57
2017-06-20T00:51:49.639Z,1003.54
2017-06-20T00:52:30.099Z,1003.6
2017-06-20T00:53:10.623Z,1003.56
2017-06-20T00:53:51.179Z,1003.58
2017-06-20T00:54:31.612Z,1003.57
2017-06-20T00:55:12.247Z,1003.56
2017-06-20T00:55:52.703Z,1003.53
2017-06-20T00:56:33.337Z,1003.57
2017-06-20T00:57:13.863Z,1003.55
2017-06-20T00:57:54.308Z,1003.54
2017-06-20T00:58:34.838Z,1003.49
2017-06-20T00:59:15.361Z,1003.56
2017-06-20T00:59:55.803Z,1003.53
2017-06-20T01:00:36.312Z,1003.5
2017-06-20T01:01:16.817Z,1003.51
2017-06-20T01:01:57.362Z,1003.52
2017-06-20T01:02:37.990Z,1003.5
2017-06-20T01:03:18.554Z,1003.48
2017-06-20T01:03:59.101Z,1003.5
2017-06-20T01:04:39.608Z,1003.47
2017-06-20T01:05:20.121Z,1003.48
2017-06-20T01:06:00.638Z,1003.46
2017-06-20T01:06:41.111Z,1003.47
2017-06-20T01:07:21.612Z,1003.42
2017-06-20T01:08:02.056Z,1003.43
2017-06-20T01:08:42.594Z,1003.47
2017-06-20T01:09:28.264Z,1003.43
2017-06-20T01:10:12.436Z,1003.45
2017-06-20T01:10:52.961Z,1003.39
2017-06-20T01:11:33.588Z,1003.43
2017-06-20T01:12:14.101Z,1003.45
2017-06-20T01:12:54.560Z,1003.4
2017-06-20T01:13:35.038Z,1003.41
2017-06-20T01:14:15.613Z,1003.42
2017-06-20T01:14:56.043Z,1003.44
2017-06-20T01:15:36.551Z,1003.42
2017-06-20T01:16:17.090Z,1003.43
2017-06-20T01:16:57.563Z,1003.4
2017-06-20T01:17:38.215Z,1003.39
2017-06-20T01:18:18.663Z,1003.41
2017-06-20T01:18:59.114Z,1003.42
2017-06-20T01:19:39.634Z,1003.4
2017-06-20T01:20:20.144Z,1003.38
2017-06-20T01:21:00.866Z,1003.48
2017-06-20T01:21:41.421Z,1003.42
2017-06-20T01:22:21.909Z,1003.42
2017-06-20T01:23:02.418Z,1003.43
2017-06-20T01:23:42.911Z,1003.43
2017-06-20T01:24:23.386Z,1003.42
2017-06-20T01:25:03.916Z,1003.39
2017-06-20T01:25:44.536Z,1003.43
2017-06-20T01:26:24.945Z,1003.38
2017-06-20T01:27:05.428Z,1003.43
2017-06-20T01:27:45.945Z,1003.41
2017-06-20T01:28:26.456Z,1003.42
2017-06-20T01:29:06.935Z,1003.39
2017-06-20T01:29:47.475Z,1003.38
2017-06-20T01:30:28.024Z,1003.39
2017-06-20T01:31:08.493Z,1003.36
2017-06-20T01:31:48.973Z,1003.37
2017-06-20T01:32:29.469Z,1003.38
2017-06-20T01:33:10.048Z,1003.37
2017-06-20T01:33:50.554Z,1003.36
2017-06-20T01:34:31.076Z,1003.38
2017-06-20T01:35:11.539Z,1003.4
2017-06-20T01:35:52.026Z,1003.37
2017-06-20T01:36:32.535Z,1003.39
2017-06-20T01:37:13.058Z,1003.36
2017-06-20T01:37:53.590Z,1003.37
2017-06-20T01:38:34.082Z,1003.36
2017-06-20T01:39:14.674Z,1003.41
2017-06-20T01:39:55.109Z,1003.38
2017-06-20T01:40:35.585Z,1003.41
2017-06-20T01:41:16.127Z,1003.36
2017-06-20T01:41:56.662Z,1003.37
2017-06-20T01:42:37.167Z,1003.46
2017-06-20T01:43:17.635Z,1003.38
2017-06-20T01:43:58.173Z,1003.42
2017-06-20T01:44:38.670Z,1003.42
2017-06-20T01:45:19.138Z,1003.42
2017-06-20T01:45:59.675Z,1003.43
2017-06-20T01:46:40.183Z,1003.44
2017-06-20T01:47:20.684Z,1003.44
2017-06-20T01:48:01.145Z,1003.41
2017-06-20T01:48:41.656Z,1003.43
2017-06-20T01:49:22.130Z,1003.4
2017-06-20T01:50:02.638Z,1003.41
2017-06-20T01:50:43.302Z,1003.39
2017-06-20T01:51:23.862Z,1003.39
2017-06-20T01:52:04.329Z,1003.4
2017-06-20T01:52:44.813Z,1003.4
2017-06-20T01:53:25.328Z,1003.39
2017-06-20T01:54:05.822Z,1003.4
2017-06-20T01:54:46.489Z,1003.38
2017-06-20T01:55:26.968Z,1003.4
2017-06-20T01:56:07.408Z,1003.35
2017-06-20T01:56:47.895Z,1003.39
2017-06-20T01:57:28.408Z,1003.36
2017-06-20T01:58:08.935Z,1003.35
2017-06-20T01:58:49.471Z,1003.34
2017-06-20T01:59:29.947Z,1003.35
2017-06-20T02:00:10.470Z,1003.35
2017-06-20T02:00:50.973Z,1003.35
2017-06-20T02:01:31.504Z,1003.37
2017-06-20T02:02:12.029Z,1003.36
2017-06-20T02:02:52.507Z,1003.36
2017-06-20T02:03:33.028Z,1003.34
2017-06-20T02:04:13.542Z,1003.34
2017-06-20T02:04:54.012Z,1003.37
2017-06-20T02:05:34.513Z,1003.37
2017-06-20T02:06:15.053Z,1003.39
2017-06-20T02:06:55.520Z,1003.3
2017-06-20T02:07:35.986Z,1003.34
2017-06-20T02:08:16.510Z,1003.4
2017-06-20T02:08:56.982Z,1003.35
2017-06-20T02:09:37.549Z,1003.37
2017-06-20T02:10:18.033Z,1003.38
2017-06-20T02:10:58.499Z,1003.39
2017-06-20T02:11:38.995Z,1003.38
2017-06-20T02:12:19.577Z,1003.37
2017-06-20T02:13:00.109Z,1003.38
2017-06-20T02:13:40.601Z,1003.42
2017-06-20T02:14:21.082Z,1003.37
2017-06-20T02:15:01.576Z,1003.4
2017-06-20T02:15:42.081Z,1003.38
2017-06-20T02:16:22.588Z,1003.39
2017-06-20T02:17:03.103Z,1003.39
2017-06-20T02:17:43.600Z,1003.38
2017-06-20T02:18:24.069Z,1003.41
2017-06-20T02:19:04.584Z,1003.42
2017-06-20T02:19:45.117Z,1003.38
2017-06-20T02:20:25.638Z,1003.41
2017-06-20T02:21:06.170Z,1003.4
2017-06-20T02:21:46.651Z,1003.44
2017-06-20T02:22:27.125Z,1003.43
2017-06-20T02:23:07.650Z,1003.38
2017-06-20T02:23:48.130Z,1003.36
2017-06-20T02:24:28.773Z,1003.37
2017-06-20T02:25:09.330Z,1003.41
2017-06-20T02:25:49.835Z,1003.37
2017-06-20T02:26:30.330Z,1003.36
2017-06-20T02:27:10.827Z,1003.4
2017-06-20T02:27:51.325Z,1003.36
2017-06-20T02:28:31.886Z,1003.38
2017-06-20T02:29:12.363Z,1003.41
2017-06-20T02:29:52.850Z,1003.4
2017-06-20T02:30:33.360Z,1003.4
2017-06-20T02:31:13.833Z,1003.43
2017-06-20T02:31:54.389Z,1003.41
2017-06-20T02:32:34.880Z,1003.43
2017-06-20T02:33:15.389Z,1003.39
2017-06-20T02:33:55.917Z,1003.42
2017-06-20T02:34:36.386Z,1003.42
2017-06-20T02:35:16.901Z,1003.4
2017-06-20T02:35:57.402Z,1003.42
2017-06-20T02:36:37.837Z,1003.44
2017-06-20T02:37:18.374Z,1003.44
2017-06-20T02:37:58.860Z,1003.43
2017-06-20T02:38:39.423Z,1003.44
2017-06-20T02:39:19.880Z,1003.42
2017-06-20T02:40:00.398Z,1003.4
2017-06-20T02:40:40.899Z,1003.42
2017-06-20T02:41:21.389Z,1003.43
2017-06-20T02:42:01.908Z,1003.41
2017-06-20T02:42:42.371Z,1003.42
2017-06-20T02:43:22.903Z,1003.45
2017-06-20T02:44:03.372Z,1003.46
2017-06-20T02:44:43.870Z,1003.45
2017-06-20T02:45:24.363Z,1003.45
2017-06-20T02:46:04.873Z,1003.52
2017-06-20T02:46:45.567Z,1003.48
2017-06-20T02:47:26.071Z,1003.47
2017-06-20T02:48:06.534Z,1003.54
2017-06-20T02:48:47.150Z,1003.53
2017-06-20T02:49:27.632Z,1003.53
2017-06-20T02:50:08.161Z,1003.54
2017-06-20T02:50:48.657Z,1003.52
2017-06-20T02:51:29.206Z,1003.51
2017-06-20T02:52:09.724Z,1003.49
2017-06-20T02:52:50.227Z,1003.5
2017-06-20T02:53:30.735Z,1003.53
2017-06-20T02:54:11.282Z,1003.48
2017-06-20T02:54:51.730Z,1003.5
2017-06-20T02:55:32.848Z,1003.5
2017-06-20T02:56:13.389Z,1003.49
2017-06-20T02:56:53.887Z,1003.51
2017-06-20T02:57:34.535Z,1003.55
2017-06-20T02:58:15.053Z,1003.54
2017-06-20T02:58:55.517Z,1003.54
2017-06-20T02:59:35.990Z,1003.54
2017-06-20T03:00:16.446Z,1003.52
2017-06-20T03:00:57.074Z,1003.53
2017-06-20T03:01:37.562Z,1003.51
2017-06-20T03:02:18.058Z,1003.52
2017-06-20T03:02:58.550Z,1003.49
2017-06-20T03:03:39.061Z,1003.5
2017-06-20T03:04:19.475Z,1003.48
2017-06-20T03:04:59.999Z,1003.51
2017-06-20T03:05:40.552Z,1003.46
2017-06-20T03:06:21.080Z,1003.52
2017-06-20T03:07:01.558Z,1003.5
2017-06-20T03:07:42.770Z,1003.54
2017-06-20T03:08:23.264Z,1003.52
2017-06-20T03:09:03.811Z,1003.46
2017-06-20T03:09:44.314Z,1003.5
2017-06-20T03:10:24.804Z,1003.53
2017-06-20T03:11:05.283Z,1003.53
2017-06-20T03:11:45.846Z,1003.54
2017-06-20T03:12:26.359Z,1003.51
2017-06-20T03:13:06.850Z,1003.5
2017-06-20T03:13:47.451Z,1003.51
2017-06-20T03:14:28.023Z,1003.54
2017-06-20T03:15:08.573Z,1003.52
2017-06-20T03:15:49.015Z,1003.54
2017-06-20T03:16:29.567Z,1003.54
2017-06-20T03:17:10.044Z,1003.45
2017-06-20T03:17:50.546Z,1003.5
2017-06-20T03:18:31.012Z,1003.49
2017-06-20T03:19:11.553Z,1003.47
2017-06-20T03:19:52.094Z,1003.5
2017-06-20T03:20:32.560Z,1003.49
2017-06-20T03:21:13.107Z,1003.44
2017-06-20T03:21:53.705Z,1003.52
2017-06-20T03:22:34.211Z,1003.46
2017-06-20T03:23:14.752Z,1003.52
2017-06-20T03:23:55.242Z,1003.48
2017-06-20T03:24:35.726Z,1003.5
2017-06-20T03:25:16.262Z,1003.49
2017-06-20T03:25:56.807Z,1003.48
2017-06-20T03:26:37.352Z,1003.51
2017-06-20T03:27:17.844Z,1003.54
2017-06-20T03:27:58.361Z,1003.55
2017-06-20T03:28:38.927Z,1003.54
2017-06-20T03:29:19.418Z,1003.49
2017-06-20T03:30:00.039Z,1003.56
2017-06-20T03:30:40.456Z,1003.52
2017-06-20T03:31:20.974Z,1003.52
2017-06-20T03:32:01.469Z,1003.53
2017-06-20T03:34:30.149Z,1003.53
2017-06-20T03:35:10.674Z,1003.53
2017-06-20T03:35:51.155Z,1003.52
2017-06-20T03:36:31.697Z,1003.53
2017-06-20T03:37:12.158Z,1003.48
2017-06-20T03:37:52.694Z,1003.53
2017-06-20T03:38:33.205Z,1003.55
2017-06-20T03:39:13.706Z,1003.54
2017-06-20T03:39:54.405Z,1003.56
2017-06-20T03:40:34.766Z,1003.58
2017-06-20T03:41:15.232Z,1003.55
2017-06-20T03:41:55.751Z,1003.55
2017-06-20T03:42:36.239Z,1003.54
2017-06-20T03:43:16.728Z,1003.54
2017-06-20T03:43:57.211Z,1003.53
2017-06-20T03:44:37.743Z,1003.58
2017-06-20T03:45:18.250Z,1003.52
2017-06-20T03:45:58.719Z,1003.54
2017-06-20T03:46:39.240Z,1003.59
2017-06-20T03:47:19.720Z,1003.54
2017-06-20T03:48:00.235Z,1003.56
2017-06-20T03:48:40.704Z,1003.53
2017-06-20T03:49:21.208Z,1003.52
2017-06-20T03:50:01.726Z,1003.53
2017-06-20T03:50:42.153Z,1003.53
2017-06-20T03:51:22.642Z,1003.52
2017-06-20T03:52:03.127Z,1003.49
2017-06-20T03:52:43.646Z,1003.51
2017-06-20T03:53:24.182Z,1003.51
2017-06-20T03:54:04.622Z,1003.5
2017-06-20T03:54:45.129Z,1003.5
2017-06-20T03:55:25.677Z,1003.52
2017-06-20T03:56:06.220Z,1003.53
2017-06-20T03:56:46.760Z,1003.53
2017-06-20T03:57:27.198Z,1003.51
2017-06-20T03:58:07.687Z,1003.56
2017-06-20T03:58:48.249Z,1003.54
2017-06-20T03:59:28.742Z,1003.53
2017-06-20T04:00:09.240Z,1003.58
2017-06-20T04:00:49.728Z,1003.55
2017-06-20T04:01:30.227Z,1003.53
2017-06-20T04:02:10.752Z,1003.54
2017-06-20T04:02:51.282Z,1003.53
2017-06-20T04:03:31.838Z,1003.52
2017-06-20T04:04:12.295Z,1003.54
2017-06-20T04:04:52.776Z,1003.54
2017-06-20T04:05:33.369Z,1003.55
2017-06-20T04:06:13.820Z,1003.58
2017-06-20T04:06:54.310Z,1003.56
2017-06-20T04:07:34.815Z,1003.54
2017-06-20T04:08:15.348Z,1003.57
2017-06-20T04:08:55.841Z,1003.53
2017-06-20T04:09:36.302Z,1003.52
2017-06-20T04:10:17.008Z,1003.53
2017-06-20T04:10:57.578Z,1003.54
2017-06-20T04:11:38.157Z,1003.61
2017-06-20T04:12:18.588Z,1003.53
2017-06-20T04:12:59.108Z,1003.59
2017-06-20T04:13:39.562Z,1003.57
2017-06-20T04:14:20.110Z,1003.63
2017-06-20T04:15:00.570Z,1003.59
2017-06-20T04:15:41.093Z,1003.61
2017-06-20T04:16:21.666Z,1003.62
2017-06-20T04:17:02.258Z,1003.65
2017-06-20T04:17:42.727Z,1003.63
2017-06-20T04:18:23.233Z,1003.67
2017-06-20T04:19:03.759Z,1003.64
2017-06-20T04:19:44.314Z,1003.62
2017-06-20T04:20:24.791Z,1003.62
2017-06-20T04:21:05.488Z,1003.59
2017-06-20T04:21:45.824Z,1003.61
2017-06-20T04:22:26.372Z,1003.57
2017-06-20T04:24:39.920Z,1003.56
2017-06-20T04:25:20.416Z,1003.58
2017-06-20T04:26:01.028Z,1003.57
2017-06-20T04:26:41.509Z,1003.6
2017-06-20T04:27:22.005Z,1003.58
2017-06-20T04:28:02.573Z,1003.59
2017-06-20T04:28:43.276Z,1003.62
2017-06-20T04:29:23.835Z,1003.61
2017-06-20T04:30:04.265Z,1003.62
2017-06-20T04:30:44.758Z,1003.64
2017-06-20T04:31:25.307Z,1003.59
2017-06-20T04:32:05.922Z,1003.59
2017-06-20T04:32:47.280Z,1003.57
2017-06-20T04:33:27.775Z,1003.6
2017-06-20T04:34:08.342Z,1003.66
2017-06-20T04:34:49.051Z,1003.69
2017-06-20T04:35:29.484Z,1003.74
2017-06-20T04:36:10.021Z,1003.73
2017-06-20T04:36:50.484Z,1003.76
2017-06-20T04:37:30.972Z,1003.79
2017-06-20T04:38:11.478Z,1003.8
2017-06-20T04:38:52.050Z,1003.79
2017-06-20T04:39:32.601Z,1003.84
2017-06-20T04:40:13.105Z,1003.86
2017-06-20T04:40:53.650Z,1003.86
2017-06-20T04:41:34.103Z,1003.87
2017-06-20T04:42:14.999Z,1003.86
2017-06-20T04:42:55.618Z,1003.87
2017-06-20T04:43:36.222Z,1003.79
2017-06-20T04:44:16.741Z,1003.8
2017-06-20T04:44:57.329Z,1003.78
2017-06-20T04:45:37.924Z,1003.8
2017-06-20T04:46:18.321Z,1003.83
2017-06-20T04:46:58.848Z,1003.78
2017-06-20T04:47:39.264Z,1003.8
2017-06-20T04:48:19.886Z,1003.77
2017-06-20T04:49:00.315Z,1003.79
2017-06-20T04:49:40.900Z,1003.72
2017-06-20T04:50:21.315Z,1003.75
2017-06-20T04:51:01.818Z,1003.73
2017-06-20T04:51:43.115Z,1003.67
2017-06-20T04:52:23.663Z,1003.69
2017-06-20T04:53:04.223Z,1003.72
2017-06-20T04:53:44.729Z,1003.75
2017-06-20T04:54:25.234Z,1003.77
2017-06-20T04:55:05.729Z,1003.72
2017-06-20T04:55:46.231Z,1003.72
2017-06-20T04:56:26.721Z,1003.73
2017-06-20T04:57:07.251Z,1003.73
2017-06-20T04:57:48.273Z,1003.78
2017-06-20T04:58:28.782Z,1003.78
2017-06-20T04:59:12.350Z,1003.82
2017-06-20T04:59:53.106Z,1003.78
2017-06-20T05:03:41.767Z,1003.83
2017-06-20T05:04:26.911Z,1003.83
2017-06-20T05:05:07.701Z,1003.79
2017-06-20T05:05:49.556Z,1003.75
2017-06-20T05:06:30.253Z,1003.71
2017-06-20T05:07:14.977Z,1003.74
2017-06-20T05:11:31.741Z,1003.81
2017-06-20T05:19:43.806Z,1003.76
2017-06-20T05:20:27.334Z,1003.72
2017-06-20T05:21:07.898Z,1003.81
2017-06-20T05:21:48.355Z,1003.76
2017-06-20T05:22:28.839Z,1003.74
2017-06-20T05:24:26.996Z,1003.73
2017-06-20T05:25:07.660Z,1003.78
2017-06-20T05:25:48.149Z,1003.77
2017-06-20T05:26:28.811Z,1003.83
2017-06-20T05:27:09.475Z,1003.95
2017-06-20T05:27:49.956Z,1003.94
2017-06-20T05:28:30.459Z,1003.89
2017-06-20T05:29:10.968Z,1003.87
2017-06-20T05:29:51.473Z,1003.76
2017-06-20T05:30:32.025Z,1003.73
2017-06-20T05:31:12.565Z,1003.77
2017-06-20T05:31:53.062Z,1003.72
2017-06-20T05:32:33.615Z,1003.76
2017-06-20T05:33:14.127Z,1003.74
2017-06-20T05:33:54.615Z,1003.74
2017-06-20T05:34:35.151Z,1003.72
2017-06-20T05:35:15.651Z,1003.71
2017-06-20T05:35:56.139Z,1003.75
2017-06-20T05:36:36.800Z,1003.74
2017-06-20T05:37:17.351Z,1003.75
2017-06-20T05:37:57.910Z,1003.77
2017-06-20T05:38:38.379Z,1003.74
2017-06-20T05:39:18.914Z,1003.77
2017-06-20T05:39:59.375Z,1003.78
2017-06-20T05:40:39.875Z,1003.79
2017-06-20T05:41:20.409Z,1003.74
2017-06-20T05:42:00.903Z,1003.77
2017-06-20T05:42:41.455Z,1003.76
2017-06-20T05:43:22.014Z,1003.76
2017-06-20T05:44:02.484Z,1003.82
2017-06-20T05:44:43.005Z,1003.77
2017-06-20T05:45:23.489Z,1003.75
2017-06-20T05:46:04.022Z,1003.73
2017-06-20T05:46:44.537Z,1003.77
2017-06-20T05:47:25.057Z,1003.75
2017-06-20T05:48:05.524Z,1003.74
2017-06-20T05:48:46.017Z,1003.78
2017-06-20T05:49:26.565Z,1003.76
2017-06-20T05:50:07.053Z,1003.77
2017-06-20T05:50:47.579Z,1003.77
2017-06-20T05:51:28.079Z,1003.75
2017-06-20T05:52:08.534Z,1003.82
2017-06-20T05:52:49.017Z,1003.82
2017-06-20T05:53:29.552Z,1003.82
2017-06-20T05:54:10.065Z,1003.82
2017-06-20T05:54:50.731Z,1003.84
2017-06-20T05:55:31.252Z,1003.87
2017-06-20T05:56:11.728Z,1003.93
2017-06-20T05:56:52.226Z,1003.98
2017-06-20T05:57:32.735Z,1003.98
2017-06-20T05:58:13.236Z,1004.03
2017-06-20T05:58:53.776Z,1004.02
2017-06-20T05:59:34.313Z,1003.97
2017-06-20T06:00:14.776Z,1004.02
2017-06-20T06:02:33.163Z,1003.98
2017-06-20T06:03:13.657Z,1004.02
2017-06-20T06:03:54.184Z,1003.98
2017-06-20T06:04:34.670Z,1003.9
2017-06-20T06:05:15.171Z,1003.92
2017-06-20T06:05:55.704Z,1003.92
2017-06-20T06:06:36.167Z,1003.93
2017-06-20T06:07:16.636Z,1003.95
2017-06-20T06:07:57.217Z,1003.92
2017-06-20T06:08:37.663Z,1003.95
2017-06-20T06:09:18.215Z,1003.95
2017-06-20T06:09:58.740Z,1003.97
2017-06-20T06:10:39.258Z,1003.94
2017-06-20T06:11:19.694Z,1003.96
2017-06-20T06:12:00.224Z,1003.96
2017-06-20T06:12:40.714Z,1003.94
2017-06-20T06:13:21.224Z,1003.94
2017-06-20T06:14:01.703Z,1003.96
2017-06-20T06:14:42.193Z,1003.94
2017-06-20T06:15:22.765Z,1003.95
2017-06-20T06:16:03.185Z,1003.94
2017-06-20T06:16:43.719Z,1003.93
2017-06-20T06:17:24.167Z,1003.93
2017-06-20T06:18:04.663Z,1003.93
2017-06-20T06:18:45.216Z,1003.94
2017-06-20T06:19:25.749Z,1003.97
2017-06-20T06:20:06.281Z,1003.95
2017-06-20T06:20:46.746Z,1003.93
2017-06-20T06:21:27.255Z,1003.96
2017-06-20T06:22:07.809Z,1003.98
2017-06-20T06:22:48.307Z,1004.01
2017-06-20T06:23:28.836Z,1004
2017-06-20T06:24:09.364Z,1004.07
2017-06-20T06:24:49.855Z,1004.04
2017-06-20T06:25:30.364Z,1004.02
2017-06-20T06:26:10.838Z,1004.04
2017-06-20T06:26:51.351Z,1003.97
2017-06-20T06:27:31.866Z,1003.99
2017-06-20T06:28:12.397Z,1003.97
2017-06-20T06:28:52.866Z,1003.95
2017-06-20T06:29:33.417Z,1003.94
2017-06-20T06:30:13.868Z,1003.93
2017-06-20T06:30:54.393Z,1003.91
2017-06-20T06:31:34.903Z,1003.91
2017-06-20T06:32:15.405Z,1003.88
2017-06-20T06:32:55.914Z,1003.93
2017-06-20T06:33:36.482Z,1003.93
2017-06-20T06:34:17.000Z,1003.92
2017-06-20T06:34:57.459Z,1003.95
2017-06-20T06:35:38.020Z,1003.94
2017-06-20T06:36:18.486Z,1003.97
2017-06-20T06:36:58.968Z,1003.97
2017-06-20T06:37:39.507Z,1004.02
2017-06-20T06:38:20.009Z,1003.97
2017-06-20T06:39:00.555Z,1003.96
2017-06-20T06:39:41.043Z,1003.96
2017-06-20T06:40:21.546Z,1003.95
2017-06-20T06:41:02.061Z,1003.91
2017-06-20T06:41:42.564Z,1003.95
2017-06-20T06:42:23.144Z,1003.96
2017-06-20T06:43:03.611Z,1003.92
2017-06-20T06:43:44.117Z,1003.93
2017-06-20T06:44:24.768Z,1003.89
2017-06-20T06:45:05.287Z,1003.9
2017-06-20T06:45:45.788Z,1003.94
2017-06-20T06:46:26.310Z,1003.89
2017-06-20T06:47:06.837Z,1003.97
2017-06-20T06:47:47.326Z,1003.92
2017-06-20T06:48:27.880Z,1003.91
2017-06-20T06:49:08.355Z,1003.84
2017-06-20T06:49:48.879Z,1003.94
2017-06-20T06:50:29.399Z,1003.92
2017-06-20T06:51:09.863Z,1003.91
2017-06-20T06:51:50.361Z,1003.95
2017-06-20T06:52:30.880Z,1003.93
2017-06-20T06:53:11.345Z,1003.96
2017-06-20T06:53:51.816Z,1003.95
2017-06-20T06:54:32.347Z,1003.99
2017-06-20T06:55:12.857Z,1003.97
2017-06-20T06:55:53.353Z,1004
2017-06-20T06:56:33.889Z,1003.97
2017-06-20T06:57:14.390Z,1004.02
2017-06-20T06:57:54.891Z,1003.99
2017-06-20T06:58:35.413Z,1004.02
2017-06-20T06:59:15.991Z,1003.96
2017-06-20T06:59:56.510Z,1003.98
2017-06-20T07:00:36.966Z,1004.01
2017-06-20T07:01:17.461Z,1003.98
2017-06-20T07:01:57.951Z,1004.01
2017-06-20T07:02:38.486Z,1003.96
2017-06-20T07:03:18.980Z,1004
2017-06-20T07:03:59.486Z,1003.98
2017-06-20T07:04:40.012Z,1003.99
2017-06-20T07:05:20.557Z,1003.96
2017-06-20T07:06:01.026Z,1003.96
2017-06-20T07:06:41.571Z,1003.97
2017-06-20T07:07:22.113Z,1003.95
2017-06-20T07:08:02.544Z,1003.95
2017-06-20T07:08:43.062Z,1003.98
2017-06-20T07:09:23.620Z,1003.99
2017-06-20T07:10:04.173Z,1003.99
2017-06-20T07:10:44.676Z,1004
2017-06-20T07:11:25.128Z,1003.98
2017-06-20T07:12:05.640Z,1004.02
2017-06-20T07:12:46.142Z,1003.97
2017-06-20T07:13:26.687Z,1003.95
2017-06-20T07:14:07.192Z,1004.01
2017-06-20T07:14:47.662Z,1003.98
2017-06-20T07:15:28.190Z,1003.95
2017-06-20T07:16:08.732Z,1003.97
2017-06-20T07:16:49.268Z,1003.99
2017-06-20T07:17:29.735Z,1004
2017-06-20T07:18:10.302Z,1004.04
2017-06-20T07:18:50.888Z,1004.03
2017-06-20T07:19:31.329Z,1004.04
2017-06-20T07:20:11.840Z,1004.05
2017-06-20T07:20:52.327Z,1004.01
2017-06-20T07:21:33.640Z,1004.06
2017-06-20T07:22:14.153Z,1003.97
2017-06-20T07:22:54.637Z,1003.99
2017-06-20T07:23:35.111Z,1004
2017-06-20T07:24:15.632Z,1004.06
2017-06-20T07:24:56.131Z,1004.01
2017-06-20T07:25:38.232Z,1004.03
2017-06-20T07:26:18.696Z,1004.01
2017-06-20T07:26:59.204Z,1004.05
2017-06-20T07:27:39.735Z,1004.02
2017-06-20T07:28:20.227Z,1004.04
2017-06-20T07:29:00.763Z,1004.01
2017-06-20T07:29:41.227Z,1004.05
2017-06-20T07:30:21.742Z,1004.08
2017-06-20T07:31:02.242Z,1004.05
2017-06-20T07:31:42.719Z,1004.06
2017-06-20T07:32:23.185Z,1004.06
2017-06-20T07:33:03.748Z,1004.01
2017-06-20T07:33:44.246Z,1004.05
2017-06-20T07:34:24.802Z,1004
2017-06-20T07:35:05.262Z,1003.99
2017-06-20T07:35:45.741Z,1003.99
2017-06-20T07:36:26.259Z,1004
2017-06-20T07:37:06.793Z,1003.98
2017-06-20T07:37:47.297Z,1003.99
2017-06-20T07:38:27.805Z,1003.97
2017-06-20T07:39:08.296Z,1003.97
2017-06-20T07:39:48.845Z,1003.98
2017-06-20T07:40:29.336Z,1004
2017-06-20T07:41:09.835Z,1003.94
2017-06-20T07:41:50.336Z,1003.9
2017-06-20T07:42:30.851Z,1004.01
2017-06-20T07:43:11.333Z,1003.99
2017-06-20T07:43:51.890Z,1003.96
2017-06-20T07:44:32.375Z,1004.01
2017-06-20T07:45:12.893Z,1003.99
2017-06-20T07:47:31.246Z,1004
2017-06-20T07:48:11.759Z,1004.03
2017-06-20T07:48:52.380Z,1004.03
2017-06-20T07:49:32.939Z,1003.99
2017-06-20T07:50:13.462Z,1004.05
2017-06-20T07:50:53.933Z,1004.08
2017-06-20T07:51:34.431Z,1004.06
2017-06-20T07:52:14.982Z,1004.08
2017-06-20T07:52:55.465Z,1004.05
2017-06-20T07:53:35.958Z,1004.03
2017-06-20T07:54:16.518Z,1004.08
2017-06-20T07:54:57.049Z,1004.03
2017-06-20T07:55:37.607Z,1004.04
2017-06-20T07:56:18.050Z,1004.04
2017-06-20T07:56:58.557Z,1004.07
2017-06-20T07:57:39.078Z,1004.05
2017-06-20T07:58:19.584Z,1004.03
2017-06-20T07:59:00.080Z,1004.06
2017-06-20T07:59:40.578Z,1004.03
2017-06-20T08:00:21.086Z,1004.02
2017-06-20T08:01:01.753Z,1003.98
2017-06-20T08:01:42.226Z,1003.99
2017-06-20T08:02:22.727Z,1003.99
2017-06-20T08:03:03.234Z,1003.97
2017-06-20T08:03:43.823Z,1004.01
2017-06-20T08:04:24.326Z,1004
2017-06-20T08:05:04.790Z,1003.98
2017-06-20T08:05:45.333Z,1003.97
2017-06-20T08:06:25.839Z,1003.98
2017-06-20T08:07:06.344Z,1003.99
2017-06-20T08:07:46.864Z,1004.03
2017-06-20T08:08:27.362Z,1003.98
2017-06-20T08:09:07.924Z,1004.01
2017-06-20T08:09:48.337Z,1003.97
2017-06-20T08:10:28.904Z,1003.98
2017-06-20T08:11:09.371Z,1004
2017-06-20T08:11:49.891Z,1003.98
2017-06-20T08:12:30.374Z,1004
2017-06-20T08:13:10.925Z,1004
2017-06-20T08:13:51.393Z,1003.98
2017-06-20T08:14:31.941Z,1003.98
2017-06-20T08:15:12.453Z,1003.97
2017-06-20T08:15:53.033Z,1003.98
2017-06-20T08:16:33.517Z,1003.96
2017-06-20T08:17:14.025Z,1003.97
2017-06-20T08:17:54.572Z,1003.95
2017-06-20T08:18:35.045Z,1003.9
2017-06-20T08:19:15.572Z,1003.93
2017-06-20T08:19:56.099Z,1003.92
2017-06-20T08:20:36.623Z,1003.93
2017-06-20T08:21:17.078Z,1003.92
2017-06-20T08:21:57.625Z,1003.88
2017-06-20T08:22:38.164Z,1003.93
2017-06-20T08:23:18.663Z,1003.9
2017-06-20T08:23:59.120Z,1003.89
2017-06-20T08:24:39.645Z,1003.9
2017-06-20T08:25:20.146Z,1003.88
2017-06-20T08:26:00.673Z,1003.88
2017-06-20T08:26:41.198Z,1003.88
2017-06-20T08:27:21.702Z,1003.85
2017-06-20T08:28:02.195Z,1003.85
2017-06-20T08:28:42.678Z,1003.83
2017-06-20T08:29:23.208Z,1003.79
2017-06-20T08:30:03.723Z,1003.83
2017-06-20T08:30:44.274Z,1003.83
2017-06-20T08:31:24.754Z,1003.82
2017-06-20T08:32:05.255Z,1003.86
2017-06-20T08:32:45.724Z,1003.82
2017-06-20T08:33:26.234Z,1003.87
2017-06-20T08:34:06.779Z,1003.84
2017-06-20T08:34:47.262Z,1003.79